createdAt,value
2018-07-21T12:31:26.482Z,27.46
2018-07-21T12:33:55.752Z,26.31
2018-07-21T12:36:24.916Z,27.20
2018-07-21T12:38:54.030Z,26.60
2018-07-21T12:41:23.232Z,26.28
2018-07-21T12:43:52.360Z,25.95
2018-07-21T12:46:21.572Z,25.78
2018-07-21T12:48:50.789Z,25.01
2018-07-21T12:51:19.952Z,24.56
2018-07-21T12:53:49.139Z,25.16
2018-07-21T12:56:18.552Z,25.33
2018-07-21T12:58:48.204Z,25.21
2018-07-21T13:01:17.142Z,24.33
2018-07-21T13:03:46.453Z,23.45
2018-07-21T13:06:15.640Z,24.26
2018-07-21T13:08:44.816Z,23.33
2018-07-21T13:11:14.120Z,23.64
2018-07-21T13:13:43.472Z,23.39
2018-07-21T13:16:12.625Z,24.47
2018-07-21T13:18:41.780Z,24.47
2018-07-21T13:21:11.021Z,25.33
2018-07-21T13:23:40.237Z,25.17
2018-07-21T13:26:09.380Z,23.63
2018-07-21T13:28:38.548Z,24.25
2018-07-21T13:31:07.754Z,24.44
2018-07-21T13:33:36.947Z,25.22
2018-07-21T13:36:06.277Z,24.88
2018-07-21T13:38:35.737Z,24.69
2018-07-21T13:41:05.207Z,25.15
2018-07-21T13:43:34.668Z,23.99
2018-07-21T13:46:04.036Z,24.54
2018-07-21T13:48:33.258Z,23.93
2018-07-21T13:51:02.343Z,24.74
2018-07-21T13:53:31.567Z,25.36
2018-07-21T13:56:00.748Z,24.72
2018-07-21T13:58:30.001Z,24.15
2018-07-21T14:00:58.950Z,25.40
2018-07-21T14:03:28.172Z,25.78
2018-07-21T14:05:57.407Z,26.39
2018-07-21T14:08:26.608Z,27.00
2018-07-21T14:10:55.856Z,27.10
2018-07-21T14:13:25.125Z,27.15
2018-07-21T14:15:54.403Z,26.88
2018-07-21T14:18:23.371Z,26.73
2018-07-21T14:20:52.605Z,26.17
2018-07-21T14:23:21.795Z,27.32
2018-07-21T14:25:50.958Z,28.23
2018-07-21T14:28:20.093Z,26.95
2018-07-21T14:30:49.465Z,26.51
2018-07-21T14:33:18.665Z,27.26
2018-07-21T14:35:47.968Z,28.06
2018-07-21T14:38:17.101Z,28.73
2018-07-21T14:40:46.348Z,29.60
2018-07-21T14:43:15.806Z,28.74
2018-07-21T14:45:44.882Z,28.23
2018-07-21T14:48:28.668Z,28.56
2018-07-21T14:50:58.246Z,29.31
2018-07-21T14:53:27.524Z,28.24
2018-07-21T14:55:56.663Z,28.01
2018-07-21T14:58:25.939Z,28.33
2018-07-21T15:00:55.115Z,27.75
2018-07-21T15:03:24.349Z,26.91
2018-07-21T15:05:53.696Z,27.11
2018-07-21T15:08:22.888Z,27.64
2018-07-21T15:10:52.125Z,26.92
2018-07-21T15:13:21.239Z,28.20
2018-07-21T15:15:50.527Z,28.65
2018-07-21T15:18:19.678Z,29.96
2018-07-21T15:20:48.950Z,29.28
2018-07-21T15:23:17.880Z,30.59
2018-07-21T15:25:47.067Z,29.30
2018-07-21T15:28:16.249Z,30.85
2018-07-21T15:30:45.379Z,31.18
2018-07-21T15:33:14.554Z,29.89
2018-07-21T15:35:43.712Z,32.69
2018-07-21T15:38:12.924Z,31.32
2018-07-21T15:40:42.097Z,32.35
2018-07-21T15:43:11.212Z,31.97
2018-07-21T15:45:40.450Z,30.35
2018-07-21T15:48:09.593Z,31.75
2018-07-21T15:50:38.882Z,31.86
2018-07-21T15:53:09.641Z,31.33
2018-07-21T15:55:38.842Z,29.90
2018-07-21T15:58:07.919Z,30.91
2018-07-21T16:00:37.129Z,30.97
2018-07-21T16:03:06.376Z,30.16
2018-07-21T16:05:35.588Z,31.41
2018-07-21T16:08:04.773Z,31.32
2018-07-21T16:10:33.942Z,32.06
2018-07-21T16:13:03.162Z,32.13
2018-07-21T16:15:32.278Z,32.31
2018-07-21T16:18:01.446Z,31.50
2018-07-21T16:20:30.697Z,31.47
2018-07-21T16:22:59.868Z,30.93
2018-07-21T16:25:29.084Z,31.78
2018-07-21T16:27:58.676Z,31.79
2018-07-21T16:30:27.712Z,31.13
2018-07-21T16:32:56.982Z,30.87
2018-07-21T16:35:26.062Z,29.75
2018-07-21T16:37:55.139Z,34.62
2018-07-21T16:40:24.282Z,33.43
2018-07-21T16:42:53.398Z,34.50
2018-07-21T16:45:22.568Z,34.68
2018-07-21T16:47:51.633Z,35.30
2018-07-21T16:50:20.788Z,34.41
2018-07-21T16:52:50.271Z,34.87
2018-07-21T16:55:19.484Z,33.96
2018-07-21T16:57:48.628Z,35.35
2018-07-21T17:00:17.634Z,35.92
2018-07-21T17:02:46.751Z,37.00
2018-07-21T17:05:15.958Z,39.01
2018-07-21T17:07:44.931Z,38.91
2018-07-21T17:10:14.180Z,38.33
2018-07-21T17:12:43.389Z,40.02
2018-07-21T17:15:12.587Z,38.64
2018-07-21T17:17:41.746Z,38.25
2018-07-21T17:20:10.973Z,39.03
2018-07-21T17:22:40.239Z,39.15
2018-07-21T17:25:09.652Z,39.03
2018-07-21T17:27:39.073Z,39.73
2018-07-21T17:30:08.532Z,39.68
2018-07-21T17:32:37.584Z,39.23
2018-07-21T17:35:06.722Z,38.79
2018-07-21T17:37:35.904Z,39.13
2018-07-21T17:40:05.237Z,38.97
2018-07-21T17:42:34.233Z,38.04
2018-07-21T17:45:03.378Z,38.45
2018-07-21T17:47:32.663Z,39.70
2018-07-21T17:50:01.929Z,39.08
2018-07-21T17:52:31.159Z,40.10
2018-07-21T17:55:00.457Z,39.90
2018-07-21T17:57:29.603Z,39.79
2018-07-21T17:59:58.783Z,40.15
2018-07-21T18:02:28.045Z,40.70
2018-07-21T18:04:57.173Z,40.58
2018-07-21T18:07:26.274Z,41.02
2018-07-21T18:09:55.419Z,41.31
2018-07-21T18:12:24.589Z,39.93
2018-07-21T18:14:53.788Z,39.68
2018-07-21T18:17:22.885Z,40.00
2018-07-21T18:19:52.152Z,40.40
2018-07-21T18:22:21.434Z,42.55
2018-07-21T18:24:50.737Z,43.85
2018-07-21T18:27:20.153Z,44.75
2018-07-21T18:29:49.275Z,46.70
2018-07-21T18:32:18.578Z,48.31
2018-07-21T18:34:47.784Z,50.73
2018-07-21T18:37:16.989Z,52.98
2018-07-21T18:39:46.138Z,53.77
2018-07-21T18:42:15.235Z,52.93
2018-07-21T18:44:44.407Z,53.65
2018-07-21T18:47:13.605Z,54.92
2018-07-21T18:49:42.873Z,55.55
2018-07-21T18:52:12.065Z,56.30
2018-07-21T18:54:41.185Z,57.59
2018-07-21T18:57:10.364Z,58.78
2018-07-21T18:59:39.487Z,58.87
2018-07-21T19:02:08.582Z,58.62
2018-07-21T19:04:37.802Z,58.86
2018-07-21T19:07:06.773Z,59.31
2018-07-21T19:09:35.939Z,58.93
2018-07-21T19:12:10.269Z,58.91
2018-07-21T19:14:39.403Z,59.32
2018-07-21T19:17:08.477Z,57.06
2018-07-21T19:19:43.029Z,55.68
2018-07-21T19:22:12.240Z,54.39
2018-07-21T19:24:41.143Z,53.63
2018-07-21T19:27:15.476Z,52.11
2018-07-21T19:29:44.611Z,53.41
2018-07-21T19:32:19.180Z,52.47
2018-07-21T19:34:48.336Z,51.26
2018-07-21T19:37:22.779Z,51.57
2018-07-21T19:39:51.940Z,51.22
2018-07-21T19:42:21.197Z,51.13
2018-07-21T19:44:50.298Z,51.40
2018-07-21T19:47:19.531Z,50.37
2018-07-21T19:49:48.601Z,50.84
2018-07-21T19:52:17.816Z,51.22
2018-07-21T19:54:47.954Z,51.20
2018-07-21T19:57:17.051Z,51.08
2018-07-21T19:59:46.170Z,51.50
2018-07-21T20:02:15.320Z,52.24
2018-07-21T20:04:44.460Z,52.98
2018-07-21T20:07:13.812Z,52.72
2018-07-21T20:09:42.753Z,51.58
2018-07-21T20:12:11.899Z,51.92
2018-07-21T20:14:41.061Z,53.35
2018-07-21T20:17:10.480Z,52.95
2018-07-21T20:19:39.945Z,50.14
2018-07-21T20:22:10.667Z,50.76
2018-07-21T20:27:08.387Z,51.64
2018-07-21T20:29:37.603Z,52.66
2018-07-21T20:32:06.928Z,52.89
2018-07-21T20:34:36.088Z,52.69
2018-07-21T20:37:05.243Z,52.15
2018-07-21T20:39:34.492Z,52.98
2018-07-21T20:42:03.623Z,52.65
2018-07-21T20:44:32.828Z,53.80
2018-07-21T20:47:01.984Z,53.89
2018-07-21T20:49:31.237Z,53.67
2018-07-21T20:52:00.420Z,54.08
2018-07-21T20:54:29.645Z,54.54
2018-07-21T20:56:58.919Z,53.74
2018-07-21T21:08:24.412Z,54.44
2018-07-21T21:10:53.574Z,56.23
2018-07-21T21:13:22.745Z,56.25
2018-07-21T21:15:51.696Z,56.04
2018-07-21T21:18:20.857Z,55.97
2018-07-21T21:20:50.045Z,55.96
2018-07-21T21:23:19.285Z,55.54
2018-07-21T21:25:48.447Z,56.93
2018-07-21T21:28:17.713Z,57.30
2018-07-21T21:30:47.227Z,57.04
2018-07-21T21:33:16.203Z,57.51
2018-07-21T21:35:45.450Z,58.53
2018-07-21T21:38:14.662Z,58.32
2018-07-21T21:40:43.668Z,59.14
2018-07-21T21:43:12.882Z,59.16
2018-07-21T21:45:42.005Z,59.04
2018-07-21T21:48:11.375Z,59.01
2018-07-21T21:50:40.400Z,59.67
2018-07-21T21:53:09.539Z,59.61
2018-07-21T21:55:38.809Z,59.17
2018-07-21T21:58:08.032Z,59.84
2018-07-21T22:01:08.783Z,59.88
2018-07-21T22:03:38.014Z,59.27
2018-07-21T22:06:07.226Z,59.79
2018-07-21T22:08:36.457Z,59.79
2018-07-21T22:11:05.696Z,59.81
2018-07-21T22:13:35.873Z,61.05
2018-07-21T22:16:05.114Z,60.72
2018-07-21T22:18:34.264Z,60.95
2018-07-21T22:21:03.432Z,60.76
2018-07-21T22:23:32.644Z,61.29
2018-07-21T22:26:01.845Z,61.43
2018-07-21T22:28:31.269Z,62.30
2018-07-21T22:31:00.565Z,62.52
2018-07-21T22:33:29.932Z,62.22
2018-07-21T22:35:59.127Z,63.00
2018-07-21T22:38:28.300Z,62.54
2018-07-21T22:40:57.528Z,62.72
2018-07-21T22:43:26.768Z,63.84
2018-07-21T22:45:56.055Z,63.70
2018-07-21T22:48:25.174Z,63.96
2018-07-21T22:50:54.375Z,64.41
2018-07-21T22:53:23.585Z,64.59
2018-07-21T22:55:52.901Z,65.01
2018-07-21T22:58:22.112Z,63.85
2018-07-21T23:00:51.474Z,64.21
2018-07-21T23:03:20.733Z,64.25
2018-07-21T23:05:49.891Z,64.05
2018-07-21T23:08:19.084Z,63.52
2018-07-21T23:10:48.267Z,64.00
2018-07-21T23:13:17.503Z,64.29
2018-07-21T23:15:46.661Z,64.64
2018-07-21T23:18:15.891Z,64.58
2018-07-21T23:20:45.032Z,64.70
2018-07-21T23:23:14.212Z,65.05
2018-07-21T23:25:43.397Z,65.14
2018-07-21T23:28:12.765Z,65.54
2018-07-21T23:30:41.970Z,64.72
2018-07-21T23:33:12.936Z,64.67
2018-07-21T23:35:42.070Z,64.05
2018-07-21T23:38:11.346Z,63.53
2018-07-21T23:40:40.463Z,63.85
2018-07-21T23:43:09.686Z,63.40
2018-07-21T23:45:38.882Z,64.18
2018-07-21T23:48:08.092Z,63.87
2018-07-21T23:50:37.300Z,64.59
2018-07-21T23:53:06.570Z,65.10
2018-07-21T23:55:35.754Z,64.25
2018-07-21T23:58:05.440Z,64.60
